sensor_id;sensor_type;location;lat;lon;timestamp;temperature;humidity
4312;DHT22;2169;49.086;9.284;2024-03-02T00:01:12;6.70;68.70
4312;DHT22;2169;49.086;9.284;2024-03-02T00:03:42;6.70;68.70
4312;DHT22;2169;49.086;9.284;2024-03-02T00:06:10;6.70;68.70
4312;DHT22;2169;49.086;9.284;2024-03-02T00:08:37;6.70;68.80
4312;DHT22;2169;49.086;9.284;2024-03-02T00:11:04;6.70;68.90
4312;DHT22;2169;49.086;9.284;2024-03-02T00:13:31;6.70;69.00
4312;DHT22;2169;49.086;9.284;2024-03-02T00:15:59;6.70;69.00
4312;DHT22;2169;49.086;9.284;2024-03-02T00:18:32;6.70;69.10
4312;DHT22;2169;49.086;9.284;2024-03-02T00:21:00;6.70;69.10
4312;DHT22;2169;49.086;9.284;2024-03-02T00:23:29;6.70;69.10
4312;DHT22;2169;49.086;9.284;2024-03-02T00:25:57;6.70;69.20
4312;DHT22;2169;49.086;9.284;2024-03-02T00:28:27;6.70;69.20
4312;DHT22;2169;49.086;9.284;2024-03-02T00:30:59;6.70;69.20
4312;DHT22;2169;49.086;9.284;2024-03-02T00:33:30;6.70;69.30
4312;DHT22;2169;49.086;9.284;2024-03-02T00:35:59;6.60;69.20
4312;DHT22;2169;49.086;9.284;2024-03-02T00:38:26;6.60;69.30
4312;DHT22;2169;49.086;9.284;2024-03-02T00:40:54;6.60;69.40
4312;DHT22;2169;49.086;9.284;2024-03-02T00:43:41;6.60;69.40
4312;DHT22;2169;49.086;9.284;2024-03-02T00:46:11;6.60;69.40
4312;DHT22;2169;49.086;9.284;2024-03-02T00:48:40;6.60;69.40
4312;DHT22;2169;49.086;9.284;2024-03-02T00:51:12;6.60;69.50
4312;DHT22;2169;49.086;9.284;2024-03-02T00:53:38;6.60;69.50
4312;DHT22;2169;49.086;9.284;2024-03-02T00:56:09;6.50;69.50
4312;DHT22;2169;49.086;9.284;2024-03-02T00:58:37;6.60;69.70
4312;DHT22;2169;49.086;9.284;2024-03-02T01:01:04;6.50;69.70
4312;DHT22;2169;49.086;9.284;2024-03-02T01:03:32;6.50;69.70
4312;DHT22;2169;49.086;9.284;2024-03-02T01:06:01;6.50;69.70
4312;DHT22;2169;49.086;9.284;2024-03-02T01:08:28;6.50;69.70
4312;DHT22;2169;49.086;9.284;2024-03-02T01:10:55;6.50;69.80
4312;DHT22;2169;49.086;9.284;2024-03-02T01:13:24;6.50;69.90
4312;DHT22;2169;49.086;9.284;2024-03-02T01:15:51;6.50;69.90
4312;DHT22;2169;49.086;9.284;2024-03-02T01:18:19;6.50;69.90
4312;DHT22;2169;49.086;9.284;2024-03-02T01:20:46;6.50;70.00
4312;DHT22;2169;49.086;9.284;2024-03-02T01:23:14;6.40;70.60
4312;DHT22;2169;49.086;9.284;2024-03-02T01:25:41;6.50;70.00
4312;DHT22;2169;49.086;9.284;2024-03-02T01:28:08;6.40;70.00
4312;DHT22;2169;49.086;9.284;2024-03-02T01:30:35;6.40;70.00
4312;DHT22;2169;49.086;9.284;2024-03-02T01:33:02;6.40;70.10
4312;DHT22;2169;49.086;9.284;2024-03-02T01:35:30;6.40;70.20
4312;DHT22;2169;49.086;9.284;2024-03-02T01:37:57;6.40;70.90
4312;DHT22;2169;49.086;9.284;2024-03-02T01:40:26;6.40;70.30
4312;DHT22;2169;49.086;9.284;2024-03-02T01:42:54;6.50;70.50
4312;DHT22;2169;49.086;9.284;2024-03-02T01:45:21;6.40;70.40
4312;DHT22;2169;49.086;9.284;2024-03-02T01:47:48;6.50;70.50
4312;DHT22;2169;49.086;9.284;2024-03-02T01:50:16;6.50;70.50
4312;DHT22;2169;49.086;9.284;2024-03-02T01:52:51;6.50;70.60
4312;DHT22;2169;49.086;9.284;2024-03-02T01:55:17;6.50;70.60
4312;DHT22;2169;49.086;9.284;2024-03-02T01:57:46;6.50;70.60
4312;DHT22;2169;49.086;9.284;2024-03-02T02:00:14;6.40;70.60
4312;DHT22;2169;49.086;9.284;2024-03-02T02:02:41;6.40;70.60
4312;DHT22;2169;49.086;9.284;2024-03-02T02:05:08;6.40;70.60
4312;DHT22;2169;49.086;9.284;2024-03-02T02:07:35;6.40;70.60
4312;DHT22;2169;49.086;9.284;2024-03-02T02:10:03;6.40;70.70
4312;DHT22;2169;49.086;9.284;2024-03-02T02:12:30;6.30;70.60
4312;DHT22;2169;49.086;9.284;2024-03-02T02:14:59;6.30;70.60
4312;DHT22;2169;49.086;9.284;2024-03-02T02:17:27;6.30;70.70
4312;DHT22;2169;49.086;9.284;2024-03-02T02:19:54;6.30;70.70
4312;DHT22;2169;49.086;9.284;2024-03-02T02:22:23;6.30;70.80
4312;DHT22;2169;49.086;9.284;2024-03-02T02:24:50;6.30;70.80
4312;DHT22;2169;49.086;9.284;2024-03-02T02:27:17;6.30;70.90
4312;DHT22;2169;49.086;9.284;2024-03-02T02:29:43;6.30;70.90
4312;DHT22;2169;49.086;9.284;2024-03-02T02:32:10;6.30;70.90
4312;DHT22;2169;49.086;9.284;2024-03-02T02:34:37;6.30;70.90
4312;DHT22;2169;49.086;9.284;2024-03-02T02:37:04;6.20;70.80
4312;DHT22;2169;49.086;9.284;2024-03-02T02:39:32;6.20;70.80
4312;DHT22;2169;49.086;9.284;2024-03-02T02:41:59;6.20;71.50
4312;DHT22;2169;49.086;9.284;2024-03-02T02:44:28;6.20;70.80
4312;DHT22;2169;49.086;9.284;2024-03-02T02:46:55;6.20;70.80
4312;DHT22;2169;49.086;9.284;2024-03-02T02:49:22;6.20;71.00
4312;DHT22;2169;49.086;9.284;2024-03-02T02:51:49;6.10;70.70
4312;DHT22;2169;49.086;9.284;2024-03-02T02:54:16;6.10;70.70
4312;DHT22;2169;49.086;9.284;2024-03-02T02:56:44;6.10;70.80
4312;DHT22;2169;49.086;9.284;2024-03-02T02:59:11;6.00;70.70
4312;DHT22;2169;49.086;9.284;2024-03-02T03:01:38;6.00;70.70
4312;DHT22;2169;49.086;9.284;2024-03-02T03:04:05;6.00;70.80
4312;DHT22;2169;49.086;9.284;2024-03-02T03:06:32;6.00;70.80
4312;DHT22;2169;49.086;9.284;2024-03-02T03:08:59;6.00;70.80
4312;DHT22;2169;49.086;9.284;2024-03-02T03:11:26;5.90;70.70
4312;DHT22;2169;49.086;9.284;2024-03-02T03:13:54;5.90;70.80
4312;DHT22;2169;49.086;9.284;2024-03-02T03:16:21;5.90;70.80
4312;DHT22;2169;49.086;9.284;2024-03-02T03:18:48;5.90;70.80
4312;DHT22;2169;49.086;9.284;2024-03-02T03:21:17;5.90;70.90
4312;DHT22;2169;49.086;9.284;2024-03-02T03:23:44;5.80;70.80
4312;DHT22;2169;49.086;9.284;2024-03-02T03:26:12;5.80;70.80
4312;DHT22;2169;49.086;9.284;2024-03-02T03:28:39;5.80;70.80
4312;DHT22;2169;49.086;9.284;2024-03-02T03:31:07;5.80;70.80
4312;DHT22;2169;49.086;9.284;2024-03-02T03:33:34;5.70;70.80
4312;DHT22;2169;49.086;9.284;2024-03-02T03:36:01;5.70;70.80
4312;DHT22;2169;49.086;9.284;2024-03-02T03:38:29;5.70;70.80
4312;DHT22;2169;49.086;9.284;2024-03-02T03:40:56;5.70;70.80
4312;DHT22;2169;49.086;9.284;2024-03-02T03:43:23;5.70;70.80
4312;DHT22;2169;49.086;9.284;2024-03-02T03:46:01;5.70;70.80
4312;DHT22;2169;49.086;9.284;2024-03-02T03:48:30;5.60;70.70
4312;DHT22;2169;49.086;9.284;2024-03-02T03:50:57;5.60;70.80
4312;DHT22;2169;49.086;9.284;2024-03-02T03:53:24;5.60;70.80
4312;DHT22;2169;49.086;9.284;2024-03-02T03:55:50;5.60;70.70
4312;DHT22;2169;49.086;9.284;2024-03-02T03:58:17;5.50;70.70
4312;DHT22;2169;49.086;9.284;2024-03-02T04:00:46;5.50;70.70
4312;DHT22;2169;49.086;9.284;2024-03-02T04:03:12;5.50;70.80
4312;DHT22;2169;49.086;9.284;2024-03-02T04:05:41;5.50;70.80
4312;DHT22;2169;49.086;9.284;2024-03-02T04:08:08;5.50;70.80
4312;DHT22;2169;49.086;9.284;2024-03-02T04:10:35;5.40;70.70
4312;DHT22;2169;49.086;9.284;2024-03-02T04:13:02;5.40;70.70
4312;DHT22;2169;49.086;9.284;2024-03-02T04:15:29;5.40;70.80
4312;DHT22;2169;49.086;9.284;2024-03-02T04:17:56;5.40;70.80
4312;DHT22;2169;49.086;9.284;2024-03-02T04:20:23;5.30;70.70
4312;DHT22;2169;49.086;9.284;2024-03-02T04:22:52;5.30;70.70
4312;DHT22;2169;49.086;9.284;2024-03-02T04:25:19;5.30;70.80
4312;DHT22;2169;49.086;9.284;2024-03-02T04:27:46;5.30;70.80
4312;DHT22;2169;49.086;9.284;2024-03-02T04:30:14;5.30;70.80
4312;DHT22;2169;49.086;9.284;2024-03-02T04:32:41;5.30;70.90
4312;DHT22;2169;49.086;9.284;2024-03-02T04:35:12;5.30;70.90
4312;DHT22;2169;49.086;9.284;2024-03-02T04:37:39;5.20;70.90
4312;DHT22;2169;49.086;9.284;2024-03-02T04:40:09;5.20;70.90
4312;DHT22;2169;49.086;9.284;2024-03-02T04:42:36;5.20;71.00
4312;DHT22;2169;49.086;9.284;2024-03-02T04:45:03;5.30;71.10
4312;DHT22;2169;49.086;9.284;2024-03-02T04:47:30;5.20;71.00
4312;DHT22;2169;49.086;9.284;2024-03-02T04:49:57;5.20;71.00
4312;DHT22;2169;49.086;9.284;2024-03-02T04:52:24;5.20;71.00
4312;DHT22;2169;49.086;9.284;2024-03-02T04:54:51;5.20;71.00
4312;DHT22;2169;49.086;9.284;2024-03-02T04:57:50;5.20;71.10
4312;DHT22;2169;49.086;9.284;2024-03-02T05:00:20;5.20;71.10
4312;DHT22;2169;49.086;9.284;2024-03-02T05:02:47;5.20;71.10
4312;DHT22;2169;49.086;9.284;2024-03-02T05:05:13;5.20;71.20
4312;DHT22;2169;49.086;9.284;2024-03-02T05:07:40;5.20;71.20
4312;DHT22;2169;49.086;9.284;2024-03-02T05:10:08;5.20;71.20
4312;DHT22;2169;49.086;9.284;2024-03-02T05:12:35;5.20;71.20
4312;DHT22;2169;49.086;9.284;2024-03-02T05:15:22;5.10;71.10
4312;DHT22;2169;49.086;9.284;2024-03-02T05:17:49;5.10;71.20
4312;DHT22;2169;49.086;9.284;2024-03-02T05:20:17;5.10;71.20
4312;DHT22;2169;49.086;9.284;2024-03-02T05:22:44;5.10;71.20
4312;DHT22;2169;49.086;9.284;2024-03-02T05:25:10;5.10;71.20
4312;DHT22;2169;49.086;9.284;2024-03-02T05:27:37;5.10;71.20
4312;DHT22;2169;49.086;9.284;2024-03-02T05:30:05;5.10;71.20
4312;DHT22;2169;49.086;9.284;2024-03-02T05:32:34;5.10;71.30
4312;DHT22;2169;49.086;9.284;2024-03-02T05:35:01;5.00;71.10
4312;DHT22;2169;49.086;9.284;2024-03-02T05:37:30;5.00;71.20
4312;DHT22;2169;49.086;9.284;2024-03-02T05:39:57;5.00;71.20
4312;DHT22;2169;49.086;9.284;2024-03-02T05:42:24;5.00;71.20
4312;DHT22;2169;49.086;9.284;2024-03-02T05:44:52;5.00;71.20
4312;DHT22;2169;49.086;9.284;2024-03-02T05:47:19;4.90;71.20
4312;DHT22;2169;49.086;9.284;2024-03-02T05:49:48;4.90;71.20
4312;DHT22;2169;49.086;9.284;2024-03-02T05:52:14;4.90;71.20
4312;DHT22;2169;49.086;9.284;2024-03-02T05:54:41;4.90;71.20
4312;DHT22;2169;49.086;9.284;2024-03-02T05:57:08;4.90;71.30
4312;DHT22;2169;49.086;9.284;2024-03-02T05:59:57;4.90;71.30
4312;DHT22;2169;49.086;9.284;2024-03-02T06:02:24;4.80;71.20
4312;DHT22;2169;49.086;9.284;2024-03-02T06:04:54;4.80;71.20
4312;DHT22;2169;49.086;9.284;2024-03-02T06:07:20;4.80;71.20
4312;DHT22;2169;49.086;9.284;2024-03-02T06:09:47;4.80;71.20
4312;DHT22;2169;49.086;9.284;2024-03-02T06:12:16;4.80;71.20
4312;DHT22;2169;49.086;9.284;2024-03-02T06:14:44;4.80;71.20
4312;DHT22;2169;49.086;9.284;2024-03-02T06:17:10;4.80;71.20
4312;DHT22;2169;49.086;9.284;2024-03-02T06:19:36;4.70;71.20
4312;DHT22;2169;49.086;9.284;2024-03-02T06:22:05;4.70;71.20
4312;DHT22;2169;49.086;9.284;2024-03-02T06:24:35;4.70;71.20
4312;DHT22;2169;49.086;9.284;2024-03-02T06:27:02;4.70;71.20
4312;DHT22;2169;49.086;9.284;2024-03-02T06:29:29;4.70;71.30
4312;DHT22;2169;49.086;9.284;2024-03-02T06:31:58;4.70;71.30
4312;DHT22;2169;49.086;9.284;2024-03-02T06:34:25;4.70;71.30
4312;DHT22;2169;49.086;9.284;2024-03-02T06:36:52;4.70;71.30
4312;DHT22;2169;49.086;9.284;2024-03-02T06:39:20;4.70;71.40
4312;DHT22;2169;49.086;9.284;2024-03-02T06:41:47;4.60;71.20
4312;DHT22;2169;49.086;9.284;2024-03-02T06:44:14;4.70;71.40
4312;DHT22;2169;49.086;9.284;2024-03-02T06:46:41;4.70;71.40
4312;DHT22;2169;49.086;9.284;2024-03-02T06:49:07;4.70;71.50
4312;DHT22;2169;49.086;9.284;2024-03-02T06:51:35;4.70;71.50
4312;DHT22;2169;49.086;9.284;2024-03-02T06:54:02;4.60;71.50
4312;DHT22;2169;49.086;9.284;2024-03-02T06:56:30;4.60;71.50
4312;DHT22;2169;49.086;9.284;2024-03-02T06:58:58;4.70;71.70
4312;DHT22;2169;49.086;9.284;2024-03-02T07:01:25;4.70;71.70
4312;DHT22;2169;49.086;9.284;2024-03-02T07:03:53;4.70;71.70
4312;DHT22;2169;49.086;9.284;2024-03-02T07:06:19;4.70;71.80
4312;DHT22;2169;49.086;9.284;2024-03-02T07:08:47;4.70;71.80
4312;DHT22;2169;49.086;9.284;2024-03-02T07:11:13;4.80;72.00
4312;DHT22;2169;49.086;9.284;2024-03-02T07:13:42;4.80;72.00
4312;DHT22;2169;49.086;9.284;2024-03-02T07:16:08;4.80;72.70
4312;DHT22;2169;49.086;9.284;2024-03-02T07:18:53;4.80;72.10
4312;DHT22;2169;49.086;9.284;2024-03-02T07:21:21;4.90;72.30
4312;DHT22;2169;49.086;9.284;2024-03-02T07:23:48;4.90;72.40
4312;DHT22;2169;49.086;9.284;2024-03-02T07:26:15;5.00;72.60
4312;DHT22;2169;49.086;9.284;2024-03-02T07:28:45;5.00;72.60
4312;DHT22;2169;49.086;9.284;2024-03-02T07:31:13;5.10;72.80
4312;DHT22;2169;49.086;9.284;2024-03-02T07:33:40;5.10;72.90
4312;DHT22;2169;49.086;9.284;2024-03-02T07:36:08;5.20;73.10
4312;DHT22;2169;49.086;9.284;2024-03-02T07:38:35;5.30;73.30
4312;DHT22;2169;49.086;9.284;2024-03-02T07:41:02;5.40;73.50
4312;DHT22;2169;49.086;9.284;2024-03-02T07:43:30;5.40;73.60
4312;DHT22;2169;49.086;9.284;2024-03-02T07:46:00;5.50;73.80
4312;DHT22;2169;49.086;9.284;2024-03-02T07:48:28;5.60;74.00
4312;DHT22;2169;49.086;9.284;2024-03-02T07:50:56;5.70;74.10
4312;DHT22;2169;49.086;9.284;2024-03-02T07:53:25;5.80;74.90
4312;DHT22;2169;49.086;9.284;2024-03-02T07:55:52;5.80;74.20
4312;DHT22;2169;49.086;9.284;2024-03-02T07:58:19;5.90;74.30
4312;DHT22;2169;49.086;9.284;2024-03-02T08:00:46;6.00;74.50
4312;DHT22;2169;49.086;9.284;2024-03-02T08:03:15;6.00;74.50
4312;DHT22;2169;49.086;9.284;2024-03-02T08:05:42;6.10;74.70
4312;DHT22;2169;49.086;9.284;2024-03-02T08:08:09;6.10;74.80
4312;DHT22;2169;49.086;9.284;2024-03-02T08:10:37;6.20;74.90
4312;DHT22;2169;49.086;9.284;2024-03-02T08:13:04;6.30;75.10
4312;DHT22;2169;49.086;9.284;2024-03-02T08:15:30;6.40;75.20
4312;DHT22;2169;49.086;9.284;2024-03-02T08:17:57;6.40;75.20
4312;DHT22;2169;49.086;9.284;2024-03-02T08:20:26;6.50;75.30
4312;DHT22;2169;49.086;9.284;2024-03-02T08:22:54;6.60;75.40
4312;DHT22;2169;49.086;9.284;2024-03-02T08:25:20;6.70;75.40
4312;DHT22;2169;49.086;9.284;2024-03-02T08:27:47;6.70;75.40
4312;DHT22;2169;49.086;9.284;2024-03-02T08:30:15;6.80;75.50
4312;DHT22;2169;49.086;9.284;2024-03-02T08:32:43;6.80;75.50
4312;DHT22;2169;49.086;9.284;2024-03-02T08:35:10;6.90;75.50
4312;DHT22;2169;49.086;9.284;2024-03-02T08:37:40;7.00;75.60
4312;DHT22;2169;49.086;9.284;2024-03-02T08:40:08;7.00;75.60
4312;DHT22;2169;49.086;9.284;2024-03-02T08:42:36;7.10;75.60
4312;DHT22;2169;49.086;9.284;2024-03-02T08:45:03;7.10;75.50
4312;DHT22;2169;49.086;9.284;2024-03-02T08:47:30;7.20;75.50
4312;DHT22;2169;49.086;9.284;2024-03-02T08:49:57;7.20;75.40
4312;DHT22;2169;49.086;9.284;2024-03-02T08:52:24;7.30;75.40
4312;DHT22;2169;49.086;9.284;2024-03-02T08:54:52;7.30;75.40
4312;DHT22;2169;49.086;9.284;2024-03-02T08:57:19;7.40;75.40
4312;DHT22;2169;49.086;9.284;2024-03-02T08:59:47;7.40;75.20
4312;DHT22;2169;49.086;9.284;2024-03-02T09:02:14;7.50;75.20
4312;DHT22;2169;49.086;9.284;2024-03-02T09:04:42;7.50;75.20
4312;DHT22;2169;49.086;9.284;2024-03-02T09:07:09;7.60;75.20
4312;DHT22;2169;49.086;9.284;2024-03-02T09:09:36;7.70;75.30
4312;DHT22;2169;49.086;9.284;2024-03-02T09:12:06;7.70;75.20
4312;DHT22;2169;49.086;9.284;2024-03-02T09:14:35;7.80;75.20
4312;DHT22;2169;49.086;9.284;2024-03-02T09:17:03;7.90;75.30
4312;DHT22;2169;49.086;9.284;2024-03-02T09:19:30;8.00;75.30
4312;DHT22;2169;49.086;9.284;2024-03-02T09:21:57;8.10;75.40
4312;DHT22;2169;49.086;9.284;2024-03-02T09:24:24;8.20;75.40
4312;DHT22;2169;49.086;9.284;2024-03-02T09:26:51;8.40;75.50
4312;DHT22;2169;49.086;9.284;2024-03-02T09:29:19;8.50;75.40
4312;DHT22;2169;49.086;9.284;2024-03-02T09:31:46;8.60;75.40
4312;DHT22;2169;49.086;9.284;2024-03-02T09:34:13;8.80;75.40
4312;DHT22;2169;49.086;9.284;2024-03-02T09:36:41;9.00;75.50
4312;DHT22;2169;49.086;9.284;2024-03-02T09:39:08;9.10;75.40
4312;DHT22;2169;49.086;9.284;2024-03-02T09:41:36;9.30;75.30
4312;DHT22;2169;49.086;9.284;2024-03-02T09:44:04;9.40;75.20
4312;DHT22;2169;49.086;9.284;2024-03-02T09:46:32;9.60;75.00
4312;DHT22;2169;49.086;9.284;2024-03-02T09:49:01;9.70;74.70
4312;DHT22;2169;49.086;9.284;2024-03-02T09:51:28;9.80;74.30
4312;DHT22;2169;49.086;9.284;2024-03-02T09:53:55;10.00;73.10
4312;DHT22;2169;49.086;9.284;2024-03-02T09:56:22;10.10;72.80
4312;DHT22;2169;49.086;9.284;2024-03-02T09:58:49;10.30;72.60
4312;DHT22;2169;49.086;9.284;2024-03-02T10:01:17;10.40;72.30
4312;DHT22;2169;49.086;9.284;2024-03-02T10:03:46;10.60;72.00
4312;DHT22;2169;49.086;9.284;2024-03-02T10:06:19;10.70;71.70
4312;DHT22;2169;49.086;9.284;2024-03-02T10:08:46;10.80;71.30
4312;DHT22;2169;49.086;9.284;2024-03-02T10:11:26;11.00;70.90
4312;DHT22;2169;49.086;9.284;2024-03-02T10:14:04;11.10;70.50
4312;DHT22;2169;49.086;9.284;2024-03-02T10:16:34;11.20;70.00
4312;DHT22;2169;49.086;9.284;2024-03-02T10:19:15;11.30;69.70
4312;DHT22;2169;49.086;9.284;2024-03-02T10:21:43;11.40;69.30
4312;DHT22;2169;49.086;9.284;2024-03-02T10:24:10;11.50;69.10
4312;DHT22;2169;49.086;9.284;2024-03-02T10:26:38;11.60;68.80
4312;DHT22;2169;49.086;9.284;2024-03-02T10:29:04;11.70;68.60
4312;DHT22;2169;49.086;9.284;2024-03-02T10:31:32;11.90;68.50
4312;DHT22;2169;49.086;9.284;2024-03-02T10:33:59;12.00;68.30
4312;DHT22;2169;49.086;9.284;2024-03-02T10:36:28;12.10;68.00
4312;DHT22;2169;49.086;9.284;2024-03-02T10:38:59;12.20;67.60
4312;DHT22;2169;49.086;9.284;2024-03-02T10:41:32;12.30;67.30
4312;DHT22;2169;49.086;9.284;2024-03-02T10:43:59;12.40;66.90
4312;DHT22;2169;49.086;9.284;2024-03-02T10:46:29;12.50;66.60
4312;DHT22;2169;49.086;9.284;2024-03-02T10:48:56;12.60;65.80
4312;DHT22;2169;49.086;9.284;2024-03-02T10:51:34;12.60;65.50
4312;DHT22;2169;49.086;9.284;2024-03-02T10:54:03;12.70;65.40
4312;DHT22;2169;49.086;9.284;2024-03-02T10:56:31;12.80;65.10
4312;DHT22;2169;49.086;9.284;2024-03-02T10:59:02;12.90;64.90
4312;DHT22;2169;49.086;9.284;2024-03-02T11:01:32;13.00;64.60
4312;DHT22;2169;49.086;9.284;2024-03-02T11:03:59;13.10;64.40
4312;DHT22;2169;49.086;9.284;2024-03-02T11:06:29;13.20;64.00
4312;DHT22;2169;49.086;9.284;2024-03-02T11:09:00;13.20;63.60
4312;DHT22;2169;49.086;9.284;2024-03-02T11:11:36;13.30;63.40
4312;DHT22;2169;49.086;9.284;2024-03-02T11:14:04;13.40;63.30
4312;DHT22;2169;49.086;9.284;2024-03-02T11:16:35;13.50;63.00
4312;DHT22;2169;49.086;9.284;2024-03-02T11:19:05;13.60;62.70
4312;DHT22;2169;49.086;9.284;2024-03-02T11:21:33;13.60;62.40
4312;DHT22;2169;49.086;9.284;2024-03-02T11:24:28;13.70;62.20
4312;DHT22;2169;49.086;9.284;2024-03-02T11:26:58;13.70;61.60
4312;DHT22;2169;49.086;9.284;2024-03-02T11:29:44;13.80;61.40
4312;DHT22;2169;49.086;9.284;2024-03-02T11:32:16;13.90;61.00
4312;DHT22;2169;49.086;9.284;2024-03-02T11:34:47;13.90;60.80
4312;DHT22;2169;49.086;9.284;2024-03-02T11:37:16;13.90;60.50
4312;DHT22;2169;49.086;9.284;2024-03-02T11:39:45;14.00;60.40
4312;DHT22;2169;49.086;9.284;2024-03-02T11:42:12;14.10;60.10
4312;DHT22;2169;49.086;9.284;2024-03-02T11:44:43;14.10;59.90
4312;DHT22;2169;49.086;9.284;2024-03-02T11:47:12;14.20;60.20
4312;DHT22;2169;49.086;9.284;2024-03-02T11:49:42;14.20;59.10
4312;DHT22;2169;49.086;9.284;2024-03-02T11:52:10;14.30;59.00
4312;DHT22;2169;49.086;9.284;2024-03-02T11:54:38;14.30;58.70
4312;DHT22;2169;49.086;9.284;2024-03-02T11:57:08;14.40;59.30
4312;DHT22;2169;49.086;9.284;2024-03-02T11:59:35;14.40;58.50
4312;DHT22;2169;49.086;9.284;2024-03-02T12:02:02;14.50;58.40
4312;DHT22;2169;49.086;9.284;2024-03-02T12:04:30;14.50;58.70
4312;DHT22;2169;49.086;9.284;2024-03-02T12:06:59;14.60;58.00
4312;DHT22;2169;49.086;9.284;2024-03-02T12:09:26;14.70;57.60
4312;DHT22;2169;49.086;9.284;2024-03-02T12:12:04;14.70;57.40
4312;DHT22;2169;49.086;9.284;2024-03-02T12:14:33;14.80;57.20
4312;DHT22;2169;49.086;9.284;2024-03-02T12:17:00;14.80;56.60
4312;DHT22;2169;49.086;9.284;2024-03-02T12:19:28;14.80;56.40
4312;DHT22;2169;49.086;9.284;2024-03-02T12:21:56;14.90;56.20
4312;DHT22;2169;49.086;9.284;2024-03-02T12:24:23;15.00;56.20
4312;DHT22;2169;49.086;9.284;2024-03-02T12:26:51;15.10;56.20
4312;DHT22;2169;49.086;9.284;2024-03-02T12:29:19;15.10;55.90
4312;DHT22;2169;49.086;9.284;2024-03-02T12:31:48;15.20;55.80
4312;DHT22;2169;49.086;9.284;2024-03-02T12:34:27;15.20;55.00
4312;DHT22;2169;49.086;9.284;2024-03-02T12:36:54;15.20;54.80
4312;DHT22;2169;49.086;9.284;2024-03-02T12:39:21;15.30;54.90
4312;DHT22;2169;49.086;9.284;2024-03-02T12:41:49;15.30;54.80
4312;DHT22;2169;49.086;9.284;2024-03-02T12:44:16;15.40;54.70
4312;DHT22;2169;49.086;9.284;2024-03-02T12:46:43;15.40;54.30
4312;DHT22;2169;49.086;9.284;2024-03-02T12:49:13;15.50;54.20
4312;DHT22;2169;49.086;9.284;2024-03-02T12:51:48;15.50;53.80
4312;DHT22;2169;49.086;9.284;2024-03-02T12:54:22;15.50;53.60
4312;DHT22;2169;49.086;9.284;2024-03-02T12:56:49;15.60;53.40
4312;DHT22;2169;49.086;9.284;2024-03-02T12:59:20;15.60;53.40
4312;DHT22;2169;49.086;9.284;2024-03-02T13:01:51;15.70;53.10
4312;DHT22;2169;49.086;9.284;2024-03-02T13:04:25;15.70;53.00
4312;DHT22;2169;49.086;9.284;2024-03-02T13:06:53;15.80;53.00
4312;DHT22;2169;49.086;9.284;2024-03-02T13:09:23;15.80;53.10
4312;DHT22;2169;49.086;9.284;2024-03-02T13:11:50;15.80;53.00
4312;DHT22;2169;49.086;9.284;2024-03-02T13:14:18;15.90;52.70
4312;DHT22;2169;49.086;9.284;2024-03-02T13:16:45;15.90;52.30
4312;DHT22;2169;49.086;9.284;2024-03-02T13:19:14;16.00;51.90
4312;DHT22;2169;49.086;9.284;2024-03-02T13:21:42;16.00;51.90
4312;DHT22;2169;49.086;9.284;2024-03-02T13:24:09;16.00;51.70
4312;DHT22;2169;49.086;9.284;2024-03-02T13:26:38;16.00;51.70
4312;DHT22;2169;49.086;9.284;2024-03-02T13:29:13;16.10;51.50
4312;DHT22;2169;49.086;9.284;2024-03-02T13:31:43;16.10;51.30
4312;DHT22;2169;49.086;9.284;2024-03-02T13:34:10;16.10;51.30
4312;DHT22;2169;49.086;9.284;2024-03-02T13:36:37;16.10;51.20
4312;DHT22;2169;49.086;9.284;2024-03-02T13:39:06;16.10;51.20
4312;DHT22;2169;49.086;9.284;2024-03-02T13:41:35;16.20;51.20
4312;DHT22;2169;49.086;9.284;2024-03-02T13:44:03;16.20;51.10
4312;DHT22;2169;49.086;9.284;2024-03-02T13:46:34;16.20;51.00
4312;DHT22;2169;49.086;9.284;2024-03-02T13:49:01;16.20;50.80
4312;DHT22;2169;49.086;9.284;2024-03-02T13:51:28;16.20;50.60
4312;DHT22;2169;49.086;9.284;2024-03-02T13:53:57;16.20;50.50
4312;DHT22;2169;49.086;9.284;2024-03-02T13:56:25;16.20;50.40
4312;DHT22;2169;49.086;9.284;2024-03-02T13:58:52;16.20;49.90
4312;DHT22;2169;49.086;9.284;2024-03-02T14:01:19;16.20;49.70
4312;DHT22;2169;49.086;9.284;2024-03-02T14:03:46;16.20;49.60
4312;DHT22;2169;49.086;9.284;2024-03-02T14:06:14;16.20;49.60
4312;DHT22;2169;49.086;9.284;2024-03-02T14:08:41;16.20;49.60
4312;DHT22;2169;49.086;9.284;2024-03-02T14:11:10;16.20;49.60
4312;DHT22;2169;49.086;9.284;2024-03-02T14:13:41;16.20;49.50
4312;DHT22;2169;49.086;9.284;2024-03-02T14:16:10;16.20;49.40
4312;DHT22;2169;49.086;9.284;2024-03-02T14:18:37;16.20;49.40
4312;DHT22;2169;49.086;9.284;2024-03-02T14:21:04;16.20;49.20
4312;DHT22;2169;49.086;9.284;2024-03-02T14:23:31;16.20;49.20
4312;DHT22;2169;49.086;9.284;2024-03-02T14:25:58;16.20;49.10
4312;DHT22;2169;49.086;9.284;2024-03-02T14:28:25;16.20;49.10
4312;DHT22;2169;49.086;9.284;2024-03-02T14:30:54;16.20;49.10
4312;DHT22;2169;49.086;9.284;2024-03-02T14:33:20;16.20;49.80
4312;DHT22;2169;49.086;9.284;2024-03-02T14:35:47;16.20;49.20
4312;DHT22;2169;49.086;9.284;2024-03-02T14:38:15;16.20;49.10
4312;DHT22;2169;49.086;9.284;2024-03-02T14:40:42;16.20;49.00
4312;DHT22;2169;49.086;9.284;2024-03-02T14:43:09;16.20;48.70
4312;DHT22;2169;49.086;9.284;2024-03-02T14:45:36;16.20;48.60
4312;DHT22;2169;49.086;9.284;2024-03-02T14:48:05;16.20;48.80
4312;DHT22;2169;49.086;9.284;2024-03-02T14:50:32;16.20;48.80
4312;DHT22;2169;49.086;9.284;2024-03-02T14:53:00;16.20;48.80
4312;DHT22;2169;49.086;9.284;2024-03-02T14:55:27;16.20;48.60
4312;DHT22;2169;49.086;9.284;2024-03-02T14:57:54;16.20;48.60
4312;DHT22;2169;49.086;9.284;2024-03-02T15:00:21;16.20;48.60
4312;DHT22;2169;49.086;9.284;2024-03-02T15:02:48;16.20;48.70
4312;DHT22;2169;49.086;9.284;2024-03-02T15:05:18;16.20;48.70
4312;DHT22;2169;49.086;9.284;2024-03-02T15:07:46;16.20;48.70
4312;DHT22;2169;49.086;9.284;2024-03-02T15:10:13;16.20;48.80
4312;DHT22;2169;49.086;9.284;2024-03-02T15:12:40;16.20;48.70
4312;DHT22;2169;49.086;9.284;2024-03-02T15:15:07;16.20;48.70
4312;DHT22;2169;49.086;9.284;2024-03-02T15:17:36;16.20;48.60
4312;DHT22;2169;49.086;9.284;2024-03-02T15:20:04;16.20;48.50
4312;DHT22;2169;49.086;9.284;2024-03-02T15:22:34;16.20;48.40
4312;DHT22;2169;49.086;9.284;2024-03-02T15:25:01;16.20;48.30
4312;DHT22;2169;49.086;9.284;2024-03-02T15:27:28;16.20;48.30
4312;DHT22;2169;49.086;9.284;2024-03-02T15:29:56;16.20;48.30
4312;DHT22;2169;49.086;9.284;2024-03-02T15:32:23;16.20;48.70
4312;DHT22;2169;49.086;9.284;2024-03-02T15:34:52;16.20;48.20
4312;DHT22;2169;49.086;9.284;2024-03-02T15:37:19;16.20;48.30
4312;DHT22;2169;49.086;9.284;2024-03-02T15:39:47;16.20;48.20
4312;DHT22;2169;49.086;9.284;2024-03-02T15:42:14;16.10;48.10
4312;DHT22;2169;49.086;9.284;2024-03-02T15:44:41;16.10;48.20
4312;DHT22;2169;49.086;9.284;2024-03-02T15:47:08;16.10;48.30
4312;DHT22;2169;49.086;9.284;2024-03-02T15:49:35;16.10;48.20
4312;DHT22;2169;49.086;9.284;2024-03-02T15:52:03;16.00;48.10
4312;DHT22;2169;49.086;9.284;2024-03-02T15:54:30;16.00;48.10
4312;DHT22;2169;49.086;9.284;2024-03-02T15:56:59;16.00;48.10
4312;DHT22;2169;49.086;9.284;2024-03-02T15:59:26;16.00;48.10
4312;DHT22;2169;49.086;9.284;2024-03-02T16:01:54;15.90;48.10
4312;DHT22;2169;49.086;9.284;2024-03-02T16:04:23;15.90;48.10
4312;DHT22;2169;49.086;9.284;2024-03-02T16:06:50;15.80;48.00
4312;DHT22;2169;49.086;9.284;2024-03-02T16:09:17;15.80;48.00
4312;DHT22;2169;49.086;9.284;2024-03-02T16:11:43;15.80;48.10
4312;DHT22;2169;49.086;9.284;2024-03-02T16:14:11;15.80;48.20
4312;DHT22;2169;49.086;9.284;2024-03-02T16:16:39;15.70;48.20
4312;DHT22;2169;49.086;9.284;2024-03-02T16:19:06;15.70;48.50